Time;durP1;ratioP1;P1;durP2;ratioP2;P2;SDS_P1;SDS_P2;PMS_P1;PMS_P2;Temp;Humidity;BMP_temperature;BMP_pressure;BME280_temperature;BME280_humidity;BME280_pressure;Samples;Min_cycle;Max_cycle;Signal;HPM_P1;HPM_P2
2022/08/02 00:00:00;;;;;;;4.13;2.97;;;19.50;99.90;;;;;;4978535;28;20272;-52
2022/08/02 00:02:29;;;;;;;5.40;2.90;;;19.40;99.90;;;;;;4980698;28;20205;-52
2022/08/02 00:04:56;;;;;;;3.60;3.23;;;19.30;99.90;;;;;;4991888;28;20200;-52
2022/08/02 00:07:23;;;;;;;3.50;2.83;;;19.20;99.90;;;;;;4991949;28;20258;-52
2022/08/02 00:09:50;;;;;;;3.03;2.93;;;19.20;99.90;;;;;;4978970;28;20220;-52
2022/08/02 00:12:17;;;;;;;3.53;3.27;;;19.10;99.90;;;;;;4983673;28;20212;-52
2022/08/02 00:14:44;;;;;;;4.87;2.83;;;19.00;99.90;;;;;;4991771;28;20208;-52
2022/08/02 00:17:11;;;;;;;2.60;2.40;;;19.00;99.90;;;;;;4991493;28;20199;-52
2022/08/02 00:19:39;;;;;;;3.40;3.13;;;19.00;99.90;;;;;;4971992;28;20571;-54
2022/08/02 00:22:06;;;;;;;2.87;2.67;;;19.00;99.90;;;;;;4977870;28;20199;-52
2022/08/02 00:24:33;;;;;;;2.97;2.77;;;19.00;99.90;;;;;;4991757;28;20203;-52
2022/08/02 00:27:02;;;;;;;2.60;2.50;;;19.00;99.90;;;;;;4975269;28;20258;-52
2022/08/02 00:29:29;;;;;;;3.00;2.40;;;18.90;99.90;;;;;;4971421;28;20227;-52
2022/08/02 00:31:57;;;;;;;3.63;3.33;;;18.90;99.90;;;;;;4983308;28;20286;-52
2022/08/02 00:34:24;;;;;;;4.07;3.67;;;18.90;99.90;;;;;;4991697;28;20630;-52
2022/08/02 00:36:52;;;;;;;2.80;2.70;;;18.90;99.90;;;;;;4991609;28;20208;-52
2022/08/02 00:39:19;;;;;;;2.93;2.73;;;18.70;99.90;;;;;;4991142;28;20281;-52
2022/08/02 00:41:48;;;;;;;2.40;2.20;;;18.80;99.90;;;;;;4986716;28;20207;-52
2022/08/02 00:44:15;;;;;;;2.80;2.27;;;18.80;99.90;;;;;;4976710;28;20272;-52
2022/08/02 00:46:42;;;;;;;2.23;2.13;;;18.70;99.90;;;;;;4976072;28;20674;-52
2022/08/02 00:49:09;;;;;;;1.73;1.57;;;18.70;99.90;;;;;;4975779;28;20228;-52
2022/08/02 00:51:37;;;;;;;1.33;1.23;;;18.70;99.90;;;;;;4984482;28;20212;-52
2022/08/02 00:54:06;;;;;;;2.40;1.73;;;18.60;99.90;;;;;;4995371;28;20254;-52
2022/08/02 00:56:34;;;;;;;2.77;1.70;;;18.60;99.90;;;;;;4995331;28;20206;-52
2022/08/02 00:59:01;;;;;;;2.90;1.80;;;18.60;99.90;;;;;;4994228;28;20286;-52
2022/08/02 01:01:38;;;;;;;1.70;1.60;;;18.60;99.90;;;;;;4982915;28;20707;-53
2022/08/02 01:04:06;;;;;;;1.73;1.60;;;18.50;99.90;;;;;;4989538;28;20199;-52
2022/08/02 01:06:33;;;;;;;1.50;1.20;;;18.50;99.90;;;;;;4995337;28;20277;-52
2022/08/02 01:09:01;;;;;;;1.20;1.20;;;18.50;99.90;;;;;;4964678;28;20253;-52
2022/08/02 01:11:30;;;;;;;1.10;1.10;;;18.50;99.90;;;;;;4984013;28;20670;-52
2022/08/02 01:14:01;;;;;;;1.67;1.20;;;18.40;99.90;;;;;;4995108;28;20674;-52
2022/08/02 01:16:31;;;;;;;1.40;1.37;;;18.40;99.90;;;;;;4990946;28;20216;-52
2022/08/02 01:19:02;;;;;;;1.23;1.23;;;18.30;99.90;;;;;;4974984;28;20230;-52
2022/08/02 01:21:54;;;;;;;2.90;1.67;;;18.30;99.90;;;;;;4981413;28;20379;-52
2022/08/02 01:24:35;;;;;;;1.63;1.57;;;18.30;99.90;;;;;;4995013;28;20692;-52
2022/08/02 01:27:19;;;;;;;3.73;1.70;;;18.30;99.90;;;;;;4994976;28;20225;-52
2022/08/02 01:29:51;;;;;;;2.10;1.80;;;18.30;99.90;;;;;;4990062;28;20235;-52
2022/08/02 01:32:25;;;;;;;1.50;1.10;;;18.30;99.90;;;;;;4986756;28;20331;-52
2022/08/02 01:34:56;;;;;;;1.40;1.40;;;18.30;99.90;;;;;;4979139;28;20204;-52
2022/08/02 01:37:29;;;;;;;2.00;1.90;;;18.30;99.90;;;;;;4973434;28;20212;-52
2022/08/02 01:40:02;;;;;;;3.13;1.33;;;18.30;99.90;;;;;;4974249;28;20704;-52
2022/08/02 01:42:31;;;;;;;1.50;1.40;;;18.30;99.90;;;;;;4977783;28;20662;-52
2022/08/02 01:45:02;;;;;;;1.33;1.33;;;18.30;99.90;;;;;;4975185;28;20256;-52
2022/08/02 01:47:34;;;;;;;1.63;1.53;;;18.30;99.90;;;;;;4975250;28;20205;-52
2022/08/02 01:50:02;;;;;;;1.80;1.73;;;18.30;99.90;;;;;;4978065;28;20199;-52
2022/08/02 01:52:32;;;;;;;3.00;2.80;;;18.30;99.90;;;;;;4982752;28;20228;-52
2022/08/02 01:55:02;;;;;;;2.67;2.57;;;18.30;99.90;;;;;;4975037;28;20236;-52
2022/08/02 01:57:34;;;;;;;2.60;2.50;;;18.30;99.90;;;;;;4975106;28;20592;-52
2022/08/02 02:00:07;;;;;;;2.00;1.90;;;18.30;99.90;;;;;;4978729;28;20821;-52
2022/08/02 02:02:37;;;;;;;2.40;2.30;;;18.30;99.90;;;;;;4986187;28;20196;-53
2022/08/02 02:05:06;;;;;;;2.67;2.57;;;18.30;99.90;;;;;;4994468;28;20223;-52
2022/08/02 02:07:35;;;;;;;4.97;2.43;;;18.20;99.90;;;;;;4983845;28;20200;-52
2022/08/02 02:10:02;;;;;;;2.37;2.23;;;18.20;99.90;;;;;;4984892;28;20192;-52
2022/08/02 02:12:33;;;;;;;2.97;2.70;;;18.20;99.90;;;;;;4985934;28;20657;-52
2022/08/02 02:15:03;;;;;;;2.23;2.13;;;18.10;99.90;;;;;;4994044;28;20212;-52
2022/08/02 02:17:31;;;;;;;3.63;2.93;;;18.20;99.90;;;;;;4993942;28;20355;-52
2022/08/02 02:20:00;;;;;;;2.37;2.27;;;18.20;99.90;;;;;;4979109;28;20223;-52
2022/08/02 02:22:27;;;;;;;2.47;2.37;;;18.20;99.90;;;;;;4976211;28;20200;-52
2022/08/02 02:24:54;;;;;;;2.97;2.63;;;18.10;99.90;;;;;;5002050;23;20398;-49
2022/08/02 02:27:23;;;;;;;2.60;2.40;;;18.10;99.90;;;;;;4957459;28;20210;-49
2022/08/02 02:29:52;;;;;;;2.23;2.13;;;18.10;99.90;;;;;;4935930;29;20208;-49
2022/08/02 02:32:24;;;;;;;4.07;2.50;;;18.10;99.90;;;;;;4949642;29;20622;-49
2022/08/02 02:34:53;;;;;;;2.60;2.40;;;18.00;99.90;;;;;;4958300;28;20773;-49
2022/08/02 02:37:22;;;;;;;2.20;2.10;;;18.00;99.90;;;;;;4966549;28;20255;-49
2022/08/02 02:39:51;;;;;;;2.50;2.40;;;18.00;99.90;;;;;;4974699;28;20212;-49
2022/08/02 02:42:23;;;;;;;2.50;2.40;;;17.90;99.90;;;;;;4963278;28;20598;-50
2022/08/02 02:44:51;;;;;;;2.50;2.40;;;17.90;99.90;;;;;;4955390;29;20265;-50
2022/08/02 02:47:22;;;;;;;2.40;2.30;;;17.90;99.90;;;;;;4956326;28;20228;-49
2022/08/02 02:49:50;;;;;;;3.00;2.80;;;18.00;99.90;;;;;;4962892;28;20276;-49
2022/08/02 02:52:19;;;;;;;2.87;2.53;;;18.00;99.90;;;;;;4955235;29;20256;-50
2022/08/02 02:54:49;;;;;;;3.40;3.20;;;18.00;99.90;;;;;;4955002;29;20209;-49
2022/08/02 02:57:17;;;;;;;2.40;1.80;;;18.00;99.90;;;;;;4955093;29;20738;-49
2022/08/02 02:59:44;;;;;;;2.27;2.17;;;17.90;99.90;;;;;;4955805;28;20201;-50
2022/08/02 03:02:11;;;;;;;4.40;2.90;;;17.90;99.90;;;;;;4962715;28;20205;-49
2022/08/02 03:04:41;;;;;;;2.30;2.20;;;17.90;99.90;;;;;;4972787;28;20563;-49
2022/08/02 03:07:09;;;;;;;2.37;2.37;;;17.90;99.90;;;;;;4974432;28;20271;-49
2022/08/02 03:09:36;;;;;;;2.03;1.93;;;17.90;99.90;;;;;;4968935;28;20204;-49
2022/08/02 03:12:05;;;;;;;3.33;2.30;;;18.00;99.90;;;;;;4961204;28;20277;-49
2022/08/02 03:14:33;;;;;;;1.77;1.73;;;17.90;99.90;;;;;;4963413;28;20256;-49
2022/08/02 03:17:00;;;;;;;3.73;2.80;;;17.90;99.90;;;;;;4956160;28;20695;-50
2022/08/02 03:19:27;;;;;;;2.10;1.90;;;17.80;99.90;;;;;;4958579;28;20286;-49
2022/08/02 03:21:56;;;;;;;2.27;2.17;;;17.80;99.90;;;;;;4969422;28;20264;-50
2022/08/02 03:24:23;;;;;;;2.13;2.03;;;17.90;99.90;;;;;;4953106;28;20233;-49
2022/08/02 03:26:50;;;;;;;1.90;1.60;;;17.90;99.90;;;;;;4952605;28;20256;-49
2022/08/02 03:29:17;;;;;;;1.97;1.87;;;17.90;99.90;;;;;;4951530;28;20747;-49
2022/08/02 03:31:46;;;;;;;2.27;1.77;;;17.90;99.90;;;;;;4951727;28;21066;-49
2022/08/02 03:34:13;;;;;;;1.60;1.50;;;17.90;99.90;;;;;;4946890;29;20228;-49
2022/08/02 03:36:41;;;;;;;1.30;1.30;;;17.90;99.90;;;;;;4940672;29;20230;-48
2022/08/02 03:39:12;;;;;;;1.13;1.13;;;17.90;99.90;;;;;;4934223;29;20265;-48
2022/08/02 03:41:40;;;;;;;2.03;1.40;;;17.90;99.90;;;;;;4938389;29;20225;-49
2022/08/02 03:44:08;;;;;;;1.30;1.30;;;17.90;99.90;;;;;;4940022;29;20254;-48
2022/08/02 03:46:38;;;;;;;1.97;1.60;;;17.90;99.90;;;;;;4934308;29;20221;-48
2022/08/02 03:49:07;;;;;;;1.97;1.63;;;17.90;99.90;;;;;;4934584;29;20233;-49
2022/08/02 03:51:34;;;;;;;2.47;1.33;;;17.90;99.90;;;;;;4945222;29;20592;-49
2022/08/02 03:54:02;;;;;;;1.00;0.83;;;17.90;99.90;;;;;;4951855;29;20627;-48
2022/08/02 03:56:31;;;;;;;1.07;0.60;;;17.80;99.90;;;;;;4952098;29;20268;-48
2022/08/02 03:59:09;;;;;;;0.60;0.60;;;17.80;99.90;;;;;;4951758;29;20201;-48
2022/08/02 04:01:36;;;;;;;0.80;0.80;;;17.80;99.90;;;;;;4951736;29;20714;-48
2022/08/02 04:04:03;;;;;;;1.60;0.93;;;17.80;99.90;;;;;;4952024;28;20197;-49
2022/08/02 04:06:31;;;;;;;1.90;1.10;;;17.90;99.90;;;;;;4951341;29;20307;-48
2022/08/02 04:08:58;;;;;;;3.67;1.27;;;17.90;99.90;;;;;;4950753;28;20260;-48
2022/08/02 04:11:30;;;;;;;0.80;0.80;;;17.80;99.90;;;;;;4951852;29;20636;-48
2022/08/02 04:13:59;;;;;;;1.20;1.10;;;17.80;99.90;;;;;;4934200;28;20630;-48
2022/08/02 04:16:41;;;;;;;1.27;1.10;;;17.80;99.90;;;;;;4933728;29;20700;-48
2022/08/02 04:19:11;;;;;;;1.57;1.00;;;17.80;99.90;;;;;;4939692;28;20208;-48
2022/08/02 04:21:41;;;;;;;1.57;1.50;;;17.80;99.90;;;;;;4947464;28;20242;-48
2022/08/02 04:24:11;;;;;;;0.70;0.70;;;17.80;99.90;;;;;;4945277;29;20206;-48
2022/08/02 04:26:40;;;;;;;0.83;0.83;;;17.70;99.90;;;;;;4933556;29;20226;-49
2022/08/02 04:29:08;;;;;;;0.87;0.87;;;17.80;99.90;;;;;;4933176;29;20202;-48
2022/08/02 04:31:36;;;;;;;1.13;1.13;;;17.90;99.90;;;;;;4933399;29;20799;-48
2022/08/02 04:34:03;;;;;;;1.53;1.43;;;17.90;99.90;;;;;;4933738;29;20281;-48
2022/08/02 04:36:30;;;;;;;1.23;1.23;;;17.90;99.90;;;;;;4934604;29;20264;-48
2022/08/02 04:38:57;;;;;;;1.10;1.10;;;17.80;99.90;;;;;;4937718;29;20285;-49
2022/08/02 04:41:36;;;;;;;1.30;1.30;;;17.80;99.90;;;;;;4945345;28;20317;-48
2022/08/02 04:44:03;;;;;;;1.53;1.30;;;17.90;99.90;;;;;;4953610;28;20228;-49
2022/08/02 04:46:32;;;;;;;2.33;1.53;;;17.90;99.90;;;;;;4953383;28;20277;-49
2022/08/02 04:48:58;;;;;;;1.10;1.10;;;18.00;99.90;;;;;;4958987;28;20252;-49
2022/08/02 04:51:25;;;;;;;1.10;1.00;;;18.20;99.90;;;;;;4961435;28;20197;-49
2022/08/02 04:53:52;;;;;;;1.00;0.90;;;18.30;99.90;;;;;;4972670;28;20258;-48
2022/08/02 04:56:20;;;;;;;2.00;1.10;;;18.40;99.90;;;;;;4972541;28;20646;-49
2022/08/02 04:58:46;;;;;;;2.93;1.07;;;18.70;99.90;;;;;;4955631;28;20221;-48
2022/08/02 05:01:13;;;;;;;1.43;0.60;;;19.20;99.90;;;;;;4961123;28;20217;-48
2022/08/02 05:03:42;;;;;;;1.10;1.00;;;19.80;99.90;;;;;;4969087;28;20718;-48
2022/08/02 05:06:09;;;;;;;0.80;0.80;;;20.50;99.90;;;;;;4945495;28;20640;-49
2022/08/02 05:08:36;;;;;;;1.80;0.70;;;21.20;99.90;;;;;;4941853;28;20268;-49
2022/08/02 05:11:03;;;;;;;1.07;0.60;;;21.90;99.90;;;;;;4960835;28;20252;-49
2022/08/02 05:13:30;;;;;;;0.70;0.70;;;22.60;99.90;;;;;;4970049;28;20240;-49
2022/08/02 05:15:58;;;;;;;0.83;0.83;;;23.30;99.90;;;;;;4959474;28;20221;-49
2022/08/02 05:18:25;;;;;;;1.90;0.77;;;23.90;99.90;;;;;;4955980;28;20217;-49
2022/08/02 05:20:53;;;;;;;0.57;0.57;;;24.20;99.90;;;;;;4964556;28;20221;-49
2022/08/02 05:23:20;;;;;;;0.87;0.87;;;24.90;99.90;;;;;;4959029;28;20201;-49
2022/08/02 05:25:47;;;;;;;0.83;0.70;;;25.40;99.90;;;;;;4963537;28;20236;-49
2022/08/02 05:28:14;;;;;;;1.07;0.63;;;25.50;99.90;;;;;;4961405;28;20201;-49
2022/08/02 05:30:41;;;;;;;1.53;0.90;;;26.00;99.90;;;;;;4966550;28;20259;-49
2022/08/02 05:33:08;;;;;;;0.80;0.77;;;26.10;99.90;;;;;;4957842;28;20209;-49
2022/08/02 05:35:35;;;;;;;0.80;0.80;;;26.10;99.90;;;;;;4954887;28;20225;-49
2022/08/02 05:38:03;;;;;;;0.60;0.60;;;26.40;99.90;;;;;;4965318;28;20259;-49
2022/08/02 05:40:30;;;;;;;0.67;0.67;;;26.50;99.90;;;;;;4967581;28;20286;-49
2022/08/02 05:42:57;;;;;;;0.68;0.68;;;26.80;99.90;;;;;;4966340;28;20225;-49
2022/08/02 05:45:24;;;;;;;0.73;0.60;;;26.40;99.90;;;;;;4951997;28;20680;-49
2022/08/02 05:47:52;;;;;;;0.90;0.90;;;26.60;99.90;;;;;;4937561;29;20455;-50
2022/08/02 05:50:19;;;;;;;0.70;0.70;;;27.10;99.90;;;;;;4948842;29;20205;-50
2022/08/02 05:52:55;;;;;;;0.73;0.63;;;27.20;99.90;;;;;;4960763;28;20272;-50
2022/08/02 05:55:27;;;;;;;0.50;0.50;;;27.70;99.90;;;;;;4938564;28;20240;-50
2022/08/02 05:58:03;;;;;;;1.83;0.88;;;28.10;99.90;;;;;;4951830;28;20204;-50
2022/08/02 06:00:34;;;;;;;0.70;0.70;;;28.20;99.90;;;;;;4944176;28;20193;-50
2022/08/02 06:03:07;;;;;;;0.52;0.52;;;28.50;99.90;;;;;;4949411;28;20307;-50
2022/08/02 06:05:39;;;;;;;0.70;0.70;;;29.00;99.90;;;;;;4949100;28;20228;-50
2022/08/02 06:08:08;;;;;;;1.52;0.77;;;28.90;99.90;;;;;;4954075;28;20205;-50
2022/08/02 06:10:40;;;;;;;0.70;0.70;;;29.60;99.90;;;;;;4953095;28;20211;-50
2022/08/02 06:13:10;;;;;;;1.02;0.90;;;29.80;99.90;;;;;;4950212;28;20297;-50
2022/08/02 06:15:39;;;;;;;0.80;0.80;;;30.00;99.90;;;;;;4968916;28;20220;-50
2022/08/02 06:18:07;;;;;;;1.10;0.90;;;30.40;99.90;;;;;;4956339;28;20264;-50
2022/08/02 06:20:35;;;;;;;0.77;0.68;;;30.90;99.90;;;;;;4951023;28;20666;-50
2022/08/02 06:23:04;;;;;;;2.92;0.70;;;30.30;99.90;;;;;;4953683;28;20520;-52
2022/08/02 06:25:32;;;;;;;0.68;0.68;;;29.80;99.90;;;;;;4952025;28;20669;-50
2022/08/02 06:28:03;;;;;;;0.95;0.95;;;30.00;99.90;;;;;;4957539;28;20203;-51
2022/08/02 06:30:30;;;;;;;1.85;0.80;;;30.10;99.90;;;;;;4955297;28;20209;-50
2022/08/02 06:32:57;;;;;;;0.82;0.82;;;30.50;99.90;;;;;;4946757;28;20243;-50
2022/08/02 06:35:29;;;;;;;0.63;0.63;;;30.80;99.90;;;;;;4946032;28;20792;-50
2022/08/02 06:38:00;;;;;;;0.70;0.70;;;31.30;99.90;;;;;;4955239;28;20263;-50
2022/08/02 06:40:32;;;;;;;0.75;0.75;;;31.80;99.90;;;;;;4950955;28;20205;-50
2022/08/02 06:43:11;;;;;;;1.65;0.80;;;32.20;99.90;;;;;;4954583;28;20252;-50
2022/08/02 06:45:39;;;;;;;0.82;0.82;;;31.90;99.90;;;;;;4973026;28;20220;-50
2022/08/02 06:48:07;;;;;;;0.65;0.65;;;31.40;99.90;;;;;;4941290;28;20201;-51
2022/08/02 06:50:37;;;;;;;1.35;0.70;;;31.60;99.90;;;;;;4946948;28;20229;-50
2022/08/02 06:53:04;;;;;;;0.68;0.68;;;31.50;99.90;;;;;;4935070;29;20238;-51
2022/08/02 06:55:32;;;;;;;0.60;0.60;;;31.20;99.90;;;;;;4950619;28;20232;-50
2022/08/02 06:57:59;;;;;;;0.70;0.70;;;31.20;99.90;;;;;;4960992;28;20214;-50
2022/08/02 07:00:27;;;;;;;0.68;0.68;;;31.20;99.90;;;;;;4948436;28;20200;-50
2022/08/02 07:02:54;;;;;;;0.93;0.93;;;31.40;99.90;;;;;;4970500;28;20216;-50
2022/08/02 07:05:22;;;;;;;0.98;0.95;;;31.50;99.90;;;;;;4961554;28;20279;-50
2022/08/02 07:07:49;;;;;;;1.00;1.00;;;31.80;99.90;;;;;;4957718;28;20252;-51
2022/08/02 07:10:16;;;;;;;1.33;0.90;;;31.90;99.90;;;;;;4934418;29;20202;-50
2022/08/02 07:12:43;;;;;;;1.67;0.60;;;31.70;99.90;;;;;;4940256;29;20580;-51
2022/08/02 07:15:11;;;;;;;1.40;0.65;;;31.70;99.90;;;;;;4943825;29;20312;-50
2022/08/02 07:17:39;;;;;;;1.08;0.70;;;31.90;99.90;;;;;;4947708;28;20198;-50
2022/08/02 07:20:08;;;;;;;0.57;0.57;;;31.50;99.90;;;;;;4966707;28;20616;-50
2022/08/02 07:22:35;;;;;;;0.75;0.75;;;30.90;99.90;;;;;;4973571;28;20713;-50
2022/08/02 07:25:04;;;;;;;2.40;0.82;;;30.70;99.90;;;;;;4958951;28;20232;-51
2022/08/02 07:27:31;;;;;;;0.60;0.60;;;30.30;99.90;;;;;;4954333;29;20297;-51
2022/08/02 07:29:59;;;;;;;0.93;0.80;;;29.80;99.90;;;;;;4953909;28;20256;-51
2022/08/02 07:32:29;;;;;;;0.82;0.60;;;29.90;99.90;;;;;;4953230;29;20215;-51
2022/08/02 07:34:58;;;;;;;0.65;0.60;;;30.00;99.90;;;;;;4951339;28;20226;-51
2022/08/02 07:37:27;;;;;;;0.60;0.60;;;30.10;99.90;;;;;;4954198;28;20266;-51
2022/08/02 07:39:54;;;;;;;0.50;0.50;;;30.40;99.90;;;;;;4948544;28;20233;-50
2022/08/02 07:42:21;;;;;;;1.10;0.80;;;30.30;99.90;;;;;;4949462;29;20275;-51
2022/08/02 07:44:48;;;;;;;0.50;0.50;;;30.50;99.90;;;;;;4952144;28;20754;-50
2022/08/02 07:47:15;;;;;;;1.40;0.60;;;30.80;99.90;;;;;;4960556;28;20350;-50
2022/08/02 07:49:43;;;;;;;1.85;0.60;;;30.80;99.90;;;;;;4963511;28;20212;-51
2022/08/02 07:52:11;;;;;;;0.55;0.55;;;31.10;99.90;;;;;;4973241;28;20559;-50
2022/08/02 07:54:38;;;;;;;0.60;0.60;;;31.20;99.90;;;;;;4967328;28;20210;-50
2022/08/02 07:57:05;;;;;;;0.40;0.40;;;31.50;99.90;;;;;;4965928;28;20201;-51
2022/08/02 07:59:32;;;;;;;1.38;0.50;;;31.00;99.90;;;;;;4961250;28;20287;-50
2022/08/02 08:01:59;;;;;;;0.75;0.57;;;31.10;99.90;;;;;;4960477;28;20228;-50
2022/08/02 08:04:26;;;;;;;0.82;0.82;;;31.50;99.90;;;;;;4961108;28;20201;-50
2022/08/02 08:06:54;;;;;;;0.90;0.65;;;32.00;99.90;;;;;;4969820;28;20785;-50
2022/08/02 08:09:22;;;;;;;0.70;0.60;;;32.20;99.90;;;;;;4960933;28;20206;-50
2022/08/02 08:11:49;;;;;;;0.70;0.70;;;32.50;99.90;;;;;;4962600;28;20279;-50
2022/08/02 08:14:16;;;;;;;0.63;0.63;;;33.00;99.90;;;;;;4968302;28;20683;-50
2022/08/02 08:16:43;;;;;;;1.08;0.60;;;33.40;99.90;;;;;;4953593;29;20312;-51
2022/08/02 08:19:10;;;;;;;0.60;0.60;;;33.50;99.90;;;;;;4946412;29;20248;-51
2022/08/02 08:21:37;;;;;;;0.60;0.43;;;33.00;99.90;;;;;;4954645;28;20345;-51
2022/08/02 08:24:05;;;;;;;0.70;0.70;;;33.30;98.80;;;;;;4964645;28;20196;-51
2022/08/02 08:26:33;;;;;;;0.70;0.70;;;33.20;99.60;;;;;;4998151;23;20472;-53
2022/08/02 08:29:00;;;;;;;0.88;0.57;;;32.90;99.90;;;;;;4981885;28;20901;-54
2022/08/02 08:31:27;;;;;;;0.50;0.50;;;32.50;99.90;;;;;;4981931;28;20204;-54
2022/08/02 08:33:55;;;;;;;0.52;0.52;;;32.80;99.90;;;;;;4972555;28;20208;-53
2022/08/02 08:36:23;;;;;;;0.70;0.60;;;32.20;98.70;;;;;;4980034;28;20216;-54
2022/08/02 08:38:51;;;;;;;0.75;0.60;;;32.20;99.90;;;;;;4973057;28;20210;-54
2022/08/02 08:41:19;;;;;;;0.68;0.68;;;32.50;99.90;;;;;;4982430;28;20205;-54
2022/08/02 08:43:48;;;;;;;0.85;0.85;;;32.50;99.20;;;;;;4991245;28;20227;-54
2022/08/02 08:46:26;;;;;;;1.17;0.57;;;32.80;99.90;;;;;;4991461;28;20584;-55
2022/08/02 08:48:59;;;;;;;1.45;0.70;;;32.40;99.90;;;;;;4976408;28;20214;-54
2022/08/02 08:51:30;;;;;;;0.77;0.77;;;32.00;99.90;;;;;;4979248;28;20200;-54
2022/08/02 08:54:01;;;;;;;0.75;0.70;;;32.20;99.90;;;;;;4971246;28;20209;-55
2022/08/02 08:56:32;;;;;;;1.70;0.68;;;32.30;99.90;;;;;;4979930;28;20220;-53
2022/08/02 08:59:01;;;;;;;0.75;0.75;;;32.80;99.90;;;;;;4981344;28;20283;-56
2022/08/02 09:01:28;;;;;;;0.80;0.80;;;32.70;99.20;;;;;;4983234;28;20219;-54
2022/08/02 09:03:55;;;;;;;0.90;0.90;;;32.90;98.90;;;;;;4976062;28;20236;-55
2022/08/02 09:06:22;;;;;;;1.00;0.93;;;32.70;99.90;;;;;;4975742;28;20248;-53
2022/08/02 09:08:49;;;;;;;0.85;0.85;;;32.80;99.90;;;;;;4975602;28;20204;-53
2022/08/02 09:11:18;;;;;;;0.68;0.68;;;32.80;99.90;;;;;;4981680;28;20658;-56
2022/08/02 09:13:52;;;;;;;0.60;0.60;;;32.60;99.90;;;;;;4986632;28;20200;-53
2022/08/02 09:16:35;;;;;;;0.88;0.60;;;33.20;99.90;;;;;;4983274;28;20303;-55
2022/08/02 09:19:17;;;;;;;1.90;1.90;;;33.40;99.10;;;;;;4961677;28;20208;-53
2022/08/02 09:21:44;;;;;;;2.17;2.00;;;33.10;99.90;;;;;;4972272;28;20239;-55
2022/08/02 09:24:18;;;;;;;2.55;2.45;;;32.90;99.90;;;;;;4969516;28;20197;-53
2022/08/02 09:26:47;;;;;;;1.98;1.98;;;32.40;99.90;;;;;;4971634;28;20283;-53
2022/08/02 09:29:15;;;;;;;4.28;2.38;;;32.10;99.90;;;;;;4974676;28;20288;-53
2022/08/02 09:31:43;;;;;;;2.55;2.35;;;31.90;99.90;;;;;;4975074;28;20205;-55
2022/08/02 09:34:11;;;;;;;2.15;2.05;;;31.80;99.90;;;;;;4975158;28;20196;-53
2022/08/02 09:36:40;;;;;;;2.60;2.40;;;31.70;99.90;;;;;;4973954;28;20252;-53
2022/08/02 09:39:10;;;;;;;2.33;2.33;;;31.40;99.90;;;;;;4959614;28;20288;-56
2022/08/02 09:41:40;;;;;;;2.92;2.83;;;31.40;99.90;;;;;;4974275;28;20208;-53
2022/08/02 09:44:09;;;;;;;2.35;2.35;;;31.50;99.90;;;;;;4974019;28;20221;-54
2022/08/02 09:46:38;;;;;;;1.95;1.85;;;31.30;99.90;;;;;;4973741;28;20275;-53
2022/08/02 09:49:08;;;;;;;2.17;2.13;;;31.60;99.90;;;;;;4973246;28;20219;-55
2022/08/02 09:51:37;;;;;;;1.98;1.70;;;31.70;99.90;;;;;;4973601;28;20574;-53
2022/08/02 09:54:06;;;;;;;2.45;2.13;;;31.10;99.90;;;;;;4982056;28;20200;-53
2022/08/02 09:56:45;;;;;;;2.03;1.85;;;30.80;99.90;;;;;;4982996;28;20291;-53
2022/08/02 09:59:12;;;;;;;4.00;1.98;;;30.70;99.90;;;;;;4982655;28;20578;-53
2022/08/02 10:01:40;;;;;;;1.77;1.73;;;30.80;99.90;;;;;;4981986;28;20724;-53
2022/08/02 10:04:10;;;;;;;1.75;1.67;;;30.90;99.90;;;;;;4979060;28;20225;-53
2022/08/02 10:06:38;;;;;;;1.73;1.65;;;31.50;99.90;;;;;;4975219;28;20598;-53
2022/08/02 10:09:06;;;;;;;1.30;1.30;;;32.10;99.90;;;;;;4985669;28;20718;-55
2022/08/02 10:11:35;;;;;;;1.48;1.48;;;32.70;99.90;;;;;;4983346;28;20701;-52
2022/08/02 10:14:03;;;;;;;1.50;1.50;;;32.10;99.90;;;;;;4985726;28;20192;-55
2022/08/02 10:16:33;;;;;;;1.70;1.60;;;31.10;99.90;;;;;;4994007;28;20268;-54
2022/08/02 10:19:03;;;;;;;1.67;1.60;;;30.50;99.90;;;;;;4993638;28;20215;-55
2022/08/02 10:21:36;;;;;;;1.45;1.45;;;30.30;99.90;;;;;;4986060;28;20200;-53
2022/08/02 10:24:06;;;;;;;1.17;1.17;;;30.50;99.90;;;;;;4987722;28;20280;-55
2022/08/02 10:26:34;;;;;;;1.30;1.30;;;29.80;99.90;;;;;;4993680;28;20291;-55
2022/08/02 10:29:01;;;;;;;1.08;1.08;;;30.20;99.90;;;;;;4993542;28;20207;-52
2022/08/02 10:31:34;;;;;;;2.15;1.13;;;29.80;99.90;;;;;;4977896;28;20197;-52
2022/08/02 10:34:03;;;;;;;1.10;1.10;;;29.80;99.90;;;;;;4984484;28;20251;-55
2022/08/02 10:36:33;;;;;;;3.08;1.23;;;29.80;99.90;;;;;;4968133;28;20225;-53
2022/08/02 10:39:02;;;;;;;1.75;1.65;;;30.30;99.90;;;;;;4966109;28;20237;-53
2022/08/02 10:41:51;;;;;;;1.20;1.20;;;29.50;99.90;;;;;;4956048;28;20197;-53
2022/08/02 10:44:26;;;;;;;3.20;1.17;;;30.20;99.90;;;;;;4949685;28;20636;-55
2022/08/02 10:47:13;;;;;;;1.33;1.33;;;30.30;99.90;;;;;;4954238;28;20216;-54
2022/08/02 10:49:49;;;;;;;1.80;1.38;;;30.70;99.90;;;;;;4952568;28;20456;-55
2022/08/02 10:52:18;;;;;;;0.93;0.93;;;30.40;99.90;;;;;;4953789;28;20232;-55
2022/08/02 10:54:49;;;;;;;1.90;1.20;;;31.40;99.90;;;;;;4963654;28;20263;-53
2022/08/02 10:57:20;;;;;;;1.73;1.02;;;31.80;99.90;;;;;;4965331;28;20290;-53
2022/08/02 10:59:47;;;;;;;2.67;1.52;;;31.20;99.90;;;;;;4953949;28;20205;-53
2022/08/02 11:02:33;;;;;;;1.20;1.20;;;30.70;99.90;;;;;;4953973;28;20672;-52
2022/08/02 11:05:09;;;;;;;1.00;0.90;;;30.00;99.90;;;;;;4954124;28;20204;-53
2022/08/02 11:07:40;;;;;;;0.93;0.93;;;29.70;99.90;;;;;;4953920;28;20693;-53
2022/08/02 11:10:34;;;;;;;1.02;1.02;;;29.80;99.90;;;;;;4953623;28;20586;-53
2022/08/02 11:13:07;;;;;;;0.98;0.98;;;30.00;99.90;;;;;;4968785;28;20203;-54
2022/08/02 11:15:55;;;;;;;2.67;0.90;;;30.10;99.90;;;;;;4971260;28;20217;-54
2022/08/02 11:18:24;;;;;;;1.10;1.10;;;29.90;99.90;;;;;;4971364;28;20248;-54
2022/08/02 11:21:21;;;;;;;1.00;1.00;;;29.70;99.90;;;;;;4970054;28;20196;-53
2022/08/02 11:23:53;;;;;;;1.10;1.10;;;29.50;99.90;;;;;;4970517;28;20837;-53
2022/08/02 11:26:42;;;;;;;2.25;0.80;;;29.60;99.90;;;;;;4953528;28;20279;-54
2022/08/02 11:29:09;;;;;;;1.20;1.10;;;29.80;99.90;;;;;;4958194;28;20291;-54
2022/08/02 11:31:40;;;;;;;1.60;1.00;;;29.30;99.90;;;;;;4959531;28;20201;-53
2022/08/02 11:34:07;;;;;;;1.58;1.10;;;28.80;99.90;;;;;;4971945;28;20200;-55
2022/08/02 11:36:47;;;;;;;1.20;1.20;;;28.60;99.90;;;;;;4976437;28;20223;-55
2022/08/02 11:39:17;;;;;;;1.95;0.90;;;28.50;99.90;;;;;;4986718;28;20573;-55
2022/08/02 11:41:48;;;;;;;1.95;0.90;;;28.40;99.90;;;;;;4965356;28;20205;-55
2022/08/02 11:44:15;;;;;;;2.15;1.17;;;28.50;99.90;;;;;;4975715;28;20227;-55
2022/08/02 11:46:42;;;;;;;1.17;1.15;;;28.30;99.90;;;;;;4972606;28;20231;-54
2022/08/02 11:49:14;;;;;;;1.20;0.90;;;28.30;99.90;;;;;;4979774;28;20204;-54
2022/08/02 11:51:54;;;;;;;0.95;0.95;;;28.40;99.90;;;;;;4982829;28;20204;-54
2022/08/02 11:54:32;;;;;;;1.00;0.90;;;28.10;99.90;;;;;;4981927;28;20200;-54
2022/08/02 11:57:12;;;;;;;1.13;1.13;;;28.00;99.90;;;;;;4961194;28;20244;-53
2022/08/02 11:59:39;;;;;;;0.82;0.82;;;27.80;99.90;;;;;;4971841;28;20208;-54
2022/08/02 12:02:08;;;;;;;1.15;1.15;;;27.80;99.90;;;;;;4966995;28;20202;-54
2022/08/02 12:04:36;;;;;;;0.98;0.98;;;27.70;99.90;;;;;;4962736;28;20233;-54
2022/08/02 12:07:04;;;;;;;1.08;0.95;;;27.70;99.90;;;;;;4952929;28;20225;-55
2022/08/02 12:09:34;;;;;;;1.30;1.30;;;27.90;99.90;;;;;;4952547;28;20677;-54
2022/08/02 12:12:02;;;;;;;0.95;0.95;;;27.80;99.90;;;;;;4953143;28;20201;-54
2022/08/02 12:14:32;;;;;;;1.60;1.30;;;27.70;99.90;;;;;;4952799;28;20196;-54
2022/08/02 12:19:44;;;;;;;1.13;1.10;;;27.60;99.90;;;;;;4970580;28;20279;-54
2022/08/02 12:22:17;;;;;;;1.95;0.90;;;27.80;99.90;;;;;;4954778;28;20197;-54
2022/08/02 12:24:48;;;;;;;1.02;1.02;;;27.70;99.90;;;;;;4956395;28;20232;-54
2022/08/02 12:27:33;;;;;;;1.48;1.00;;;28.00;99.90;;;;;;4952354;28;20280;-54
2022/08/02 12:30:03;;;;;;;1.15;1.15;;;28.20;99.90;;;;;;4952539;28;20201;-54
2022/08/02 12:32:31;;;;;;;0.95;0.95;;;28.30;99.90;;;;;;4952680;28;20228;-54
2022/08/02 12:35:06;;;;;;;1.48;1.02;;;28.30;99.90;;;;;;4951941;28;20296;-54
2022/08/02 12:37:34;;;;;;;4.00;1.17;;;28.20;99.90;;;;;;4964327;28;20203;-54
2022/08/02 12:40:22;;;;;;;1.60;1.60;;;28.10;99.90;;;;;;4970284;28;20226;-54
2022/08/02 12:42:51;;;;;;;1.13;1.13;;;28.10;99.90;;;;;;4952559;28;20201;-54
2022/08/02 12:45:19;;;;;;;1.33;1.10;;;28.00;99.90;;;;;;4952210;28;20197;-54
2022/08/02 12:47:49;;;;;;;0.82;0.82;;;28.10;99.90;;;;;;4953885;28;20204;-54
2022/08/02 12:50:19;;;;;;;1.35;1.35;;;28.20;99.90;;;;;;4951766;28;20197;-54
2022/08/02 12:52:47;;;;;;;1.38;1.38;;;28.20;99.90;;;;;;4952483;28;20225;-54
2022/08/02 12:55:19;;;;;;;1.48;1.38;;;28.20;99.90;;;;;;4970415;28;20662;-54
2022/08/02 12:57:56;;;;;;;1.20;1.20;;;28.20;99.90;;;;;;4970362;28;20259;-54
2022/08/02 13:00:28;;;;;;;1.35;1.35;;;28.20;99.90;;;;;;4970074;28;20205;-54
2022/08/02 13:02:55;;;;;;;1.13;1.05;;;28.10;99.90;;;;;;4969968;28;20989;-54